METAR Data
IDs: Format: Raw Decoded Include TAF

Data at: 0305 UTC 15 Aug 2020

METAR for:KFME (Fort Meade/Tipton Fl, MD, US)
Text:KFME 150255Z AUTO 00000KT 3SM SCT100 21/21 A3001 RMK AO1
Temperature: 21.0°C ( 70°F)
Dewpoint: 21.0°C ( 70°F) [RH = 100%]
Pressure (altimeter):30.01 inches Hg (1016.3 mb)
Winds:calm
Visibility: 3 sm ( 5 km)
Ceiling:at least 12,000 feet AGL
Clouds: scattered clouds at 10000 feet AGL
QC Flag:automated observation with no human augmentation